Data for 07/20/2007

Time Sea-Level Adjusted Pressure Absolute Pressure Temperature Relative Humidity Dew Point   
(mb) (inHg) (mb) (inHg) (C) (F) (%) (C) (F)
00:05 1015 29.97 844 24.92 22.3 72.1 26 1.9 35.5
00:10 1015 29.97 844 24.92 21.9 71.5 25 1.5 34.6
00:15 1015 29.97 844 24.92 22.1 71.8 25 1.3 34.3
00:20 1015 29.97 844 24.92 22 71.6 25 1.3 34.4
00:25 1015 29.97 844 24.92 21.8 71.3 25 1.2 34.2
00:30 1015 29.97 844 24.92 21.5 70.7 26 1.4 34.6
00:35 1015 29.97 844 24.92 21.4 70.5 24 0.4 32.7
00:40 1015 29.97 844 24.92 21.8 71.2 24 0.7 33.2
00:45 1015 29.97 844 24.92 21.8 71.2 25 1 33.8
00:50 1015 29.97 844 24.92 21.3 70.4 26 1.3 34.4
00:55 1015 29.97 844 24.92 21.1 69.9 27 1.6 34.9
01:00 1015 29.97 844 24.92 20.5 68.9 31 2.8 37.1
01:05 1015 29.97 844 24.92 20 68.1 29 1.4 34.5
01:10 1015 29.97 844 24.92 20.3 68.6 27 1.1 33.9
01:15 1015 29.97 845 24.95 20.8 69.4 26 0.8 33.5
01:20 1015 29.97 845 24.95 21.1 69.9 26 1 33.9
01:25 1015 29.97 845 24.95 21 69.8 26 0.8 33.4
01:30 1016 30 845 24.95 21.1 70 27 1.8 35.3
01:35 1016 30 845 24.95 21 69.8 27 1.5 34.7
01:40 1016 30 845 24.95 21.5 70.6 28 2.5 36.6
01:45 1016 30 845 24.95 21.4 70.5 28 2.1 35.7
01:50 1016 30 845 24.95 20.8 69.4 26 0.6 33
01:55 1016 30 845 24.95 21.3 70.4 26 1.4 34.4
02:00 1016 30 845 24.95 21 69.8 27 1.6 34.8
02:05 1016 30 845 24.95 20.1 68.2 31 2.5 36.5
02:10 1016 30 845 24.95 19.4 66.9 31 2 35.6
02:15 1016 30 845 24.95 19.9 67.8 30 1.9 35.4
02:20 1016 30 845 24.95 19.7 67.4 31 2.4 36.4
02:25 1016 30 845 24.95 19.6 67.3 31 2.1 35.8
02:30 1016 30 845 24.95 19.6 67.2 31 2.2 36
02:35 1016 30 845 24.95 19.3 66.8 32 2.2 36
02:40 1016 30 845 24.95 18.9 66.1 33 2.4 36.4
02:45 1016 30 845 24.95 18.4 65.2 35 2.9 37.1
02:50 1016 30 845 24.95 18.1 64.6 34 1.9 35.5
02:55 1016 30 845 24.95 18.6 65.4 32 1.8 35.3
03:00 1016 30 845 24.95 18.6 65.5 33 2.2 35.9
03:05 1016 30 845 24.95 18.2 64.7 37 3.3 37.9
03:10 1016 30 845 24.95 17.6 63.6 39 3.5 38.2
03:15 1016 30 845 24.95 17.2 62.9 38 2.9 37.2
03:20 1016 30 845 24.95 16.9 62.5 39 2.9 37.3
03:25 1016 30 845 24.95 16.8 62.2 40 3.1 37.6
03:30 1016 30 845 24.95 16.9 62.4 38 2.6 36.7
03:35 1016 30 845 24.95 17.4 63.3 38 3 37.3
03:40 1016 30 845 24.95 17.9 64.3 33 1.6 34.9
03:45 1016 30 845 24.95 17.9 64.1 35 2.2 36
03:50 1016 30 845 24.95 17.6 63.7 34 1.6 34.8
03:55 1016 30 845 24.95 17.7 63.9 33 1.3 34.4
04:00 1016 30 845 24.95 17.9 64.2 33 1.5 34.6
04:05 1016 30 845 24.95 17.7 63.9 34 1.9 35.4
04:10 1016 30 845 24.95 17.3 63.1 36 2 35.7
04:15 1016 30 845 24.95 17 62.5 37 2.4 36.3
04:20 1016 30 845 24.95 17 62.5 35 1.5 34.7
04:25 1016 30 845 24.95 16.8 62.3 35 1.6 34.8
04:30 1016 30 845 24.95 16.9 62.5 35 1.3 34.3
04:35 1016 30 845 24.95 17.1 62.8 33 1 33.7
04:40 1016 30 845 24.95 17.6 63.8 32 1 33.7
04:45 1016 30 845 24.95 17.4 63.3 33 1.2 34.1
04:50 1016 30 845 24.95 17.2 63 34 1.1 34
04:55 1016 30 845 24.95 16.9 62.5 35 1.4 34.5
05:00 1016 30 845 24.95 16.7 62.1 35 1.2 34.1
05:05 1016 30 845 24.95 16.8 62.2 34 1.1 34
05:10 1016 30 845 24.95 17 62.6 33 0.8 33.4
05:15 1016 30 845 24.95 17.3 63.1 33 0.8 33.4
05:20 1016 30 845 24.95 17.3 63.1 33 0.8 33.4
05:25 1016 30 845 24.95 17.3 63.1 33 0.9 33.7
05:30 1016 30 845 24.95 17.2 63 33 1 33.8
05:35 1016 30 845 24.95 17 62.6 33 0.9 33.6
05:40 1016 30 845 24.95 17 62.7 33 1 33.7
05:45 1016 30 845 24.95 17.1 62.8 33 1 33.8
05:50 1016 30 845 24.95 17 62.6 34 1.2 34.1
05:55 1016 30 845 24.95 17 62.6 33 0.9 33.6
06:00 1016 30 845 24.95 17 62.5 33 0.6 33.1
06:05 1016 30 845 24.95 17.2 62.9 35 1.5 34.8
06:10 1016 30 845 24.95 16.7 62 44 4.3 39.8
06:15 1016 30 845 24.95 16.6 61.8 36 1.4 34.6
06:20 1016 30 845 24.95 16.7 62 38 2.4 36.4
06:25 1016 30 845 24.95 16.3 61.3 37 1.8 35.2
06:30 1016 30 845 24.95 16.6 61.8 34 0.8 33.4
06:35 1016 30 845 24.95 17 62.7 35 1.8 35.2
06:40 1016 30 845 24.95 16.6 61.8 43 4 39.3
06:45 1016 30 845 24.95 15.9 60.6 43 3.4 38
06:50 1016 30 845 24.95 15.9 60.7 42 3.1 37.6
06:55 1016 30 846 24.98 16.1 60.9 42 3.4 38.1
07:00 1016 30 846 24.98 15.7 60.3 43 3.2 37.7
07:05 1016 30 846 24.98 15.7 60.2 44 3.7 38.6
07:10 1017 30.03 846 24.98 16 60.9 43 3.6 38.5
07:15 1016 30 846 24.98 16.4 61.4 40 3 37.3
07:20 1017 30.03 846 24.98 16.8 62.2 45 4.8 40.6
07:25 1017 30.03 846 24.98 16.3 61.4 54 7.1 44.7
07:30 1017 30.03 846 24.98 16.8 62.2 45 5 41
07:35 1017 30.03 846 24.98 17.1 62.7 42 4.1 39.4
07:40 1017 30.03 846 24.98 17.1 62.7 41 3.9 39
07:45 1017 30.03 846 24.98 17.7 63.8 41 4.5 40
07:50 1017 30.03 846 24.98 18.2 64.7 36 3.2 37.7
07:55 1017 30.03 846 24.98 18.6 65.5 38 4.1 39.4
08:00 1016 30 846 24.98 19 66.1 38 4.7 40.4
08:05 1016 30 846 24.98 19.1 66.4 42 6.1 43
08:10 1016 30 846 24.98 19.3 66.7 38 4.9 40.9
08:15 1016 30 846 24.98 19.5 67.1 40 5.7 42.2
08:20 1016 30 846 24.98 19.9 67.8 38 5.3 41.5
08:25 1016 30 846 24.98 20.7 69.2 36 5.1 41.2
08:30 1016 30 846 24.98 21.4 70.5 39 7 44.5
08:35 1016 30 846 24.98 21.2 70.1 37 5.9 42.6
08:40 1016 30 846 24.98 21.6 70.9 34 5.3 41.5
08:45 1016 30 846 24.98 22 71.6 34 5.7 42.3
08:50 1016 30 845 24.95 22.1 71.8 34 5.7 42.3
08:55 1016 30 846 24.98 22.2 72 34 5.9 42.6
09:00 1016 30 845 24.95 22.6 72.6 32 5.2 41.3
09:05 1016 30 845 24.95 23 73.3 32 5.5 42
09:10 1016 30 845 24.95 23.2 73.7 33 6.4 43.5
09:15 1016 30 845 24.95 23.8 74.8 33 6.8 44.2
09:20 1016 30 846 24.98 24.1 75.4 34 7.4 45.4
09:25 1016 30 845 24.95 24.1 75.3 33 7 44.5
09:30 1016 30 845 24.95 23.7 74.7 34 7 44.6
09:35 1016 30 845 24.95 23.7 74.7 34 7 44.6
09:40 1016 30 845 24.95 24.3 75.7 33 7.2 45
09:45 1016 30 845 24.95 24.7 76.5 32 7.2 44.9
09:50 1016 30 845 24.95 25.5 78 30 7.2 44.9
09:55 1016 30 845 24.95 25.6 78 31 7.6 45.7
10:00 1016 30 845 24.95 25.3 77.5 33 8.1 46.7
10:05 1016 30 845 24.95 24.9 76.7 34 8.3 46.9
10:10 1016 30 845 24.95 25.3 77.6 34 8.4 47.1
10:15 1016 30 845 24.95 26 78.7 32 8.5 47.3
10:20 1016 30 845 24.95 26.2 79.1 34 9.3 48.8
10:25 1016 30 845 24.95 26.4 79.5 33 8.9 48
10:30 1016 30 845 24.95 25.8 78.5 33 8.6 47.5
10:35 1016 30 845 24.95 25.5 77.8 34 8.7 47.6
10:40 1016 30 845 24.95 25.5 77.9 35 9.2 48.6
10:45 1016 30 845 24.95 25.9 78.7 33 8.6 47.5
10:50 1016 30 845 24.95 26.8 80.2 31 8.6 47.5
10:55 1016 30 845 24.95 26.6 79.9 31 8.5 47.4
11:00 1016 30 845 24.95 26.7 80 31 8.5 47.3
11:05 1016 30 845 24.95 27.2 80.9 30 8.3 46.9
11:10 1016 30 845 24.95 27.2 81 32 9.1 48.5
11:15 1016 30 845 24.95 27.7 81.8 31 9.1 48.4
11:20 1016 30 845 24.95 27.9 82.2 30 9.1 48.3
11:25 1016 30 845 24.95 27.7 81.8 31 9.2 48.6
11:30 1016 30 845 24.95 27.7 81.8 31 9.3 48.7
11:35 1016 30 845 24.95 28 82.3 31 9.4 48.9
11:40 1016 30 845 24.95 28.4 83.1 31 9.8 49.6
11:45 1016 30 845 24.95 28.1 82.7 31 9.8 49.6
11:50 1016 30 845 24.95 28.3 83 31 10 50
11:55 1016 30 845 24.95 28 82.4 30 9.1 48.3
12:00 1015 29.97 845 24.95 27.4 81.4 31 9.2 48.6
12:05 1015 29.97 845 24.95 28.1 82.5 30 9.1 48.4
12:10 1015 29.97 845 24.95 28.4 83.2 30 9.2 48.6
12:15 1015 29.97 845 24.95 28.7 83.6 28 8.7 47.7
12:20 1015 29.97 844 24.92 28.8 83.8 28 8.6 47.5
12:25 1015 29.97 844 24.92 28.4 83.1 28 8.3 46.9
12:30 1015 29.97 844 24.92 28.1 82.6 29 8.6 47.5
12:35 1015 29.97 844 24.92 28.6 83.5 27 8 46.5
12:40 1015 29.97 844 24.92 29.4 84.9 26 8.4 47.1
12:45 1015 29.97 844 24.92 29 84.1 28 8.7 47.7
12:50 1015 29.97 844 24.92 29.7 85.4 26 8.3 47
12:55 1015 29.97 844 24.92 29.4 84.8 28 9 48.3
13:00 1015 29.97 844 24.92 29.3 84.7 28 9.4 48.8
13:05 1015 29.97 844 24.92 29.3 84.8 27 8.8 47.9
13:10 1015 29.97 844 24.92 30.4 86.7 25 8.7 47.7
13:15 1015 29.97 844 24.92 30.6 87 25 8.6 47.5
13:20 1015 29.97 844 24.92 31 87.8 24 8.7 47.7
13:25 1015 29.97 844 24.92 31.3 88.3 24 8.9 48.1
13:30 1014 29.94 844 24.92 31.5 88.6 24 8.8 47.8
13:35 1014 29.94 844 24.92 31.8 89.2 24 8.9 48
13:40 1014 29.94 844 24.92 31.5 88.7 25 9.4 48.9
13:45 1014 29.94 844 24.92 31.7 89.1 23 8.7 47.6
13:50 1014 29.94 843 24.89 30.6 87.1 26 9.4 49
13:55 1014 29.94 843 24.89 30.3 86.5 27 9.6 49.3
14:00 1014 29.94 843 24.89 30.9 87.6 26 9.6 49.3
14:05 1014 29.94 843 24.89 30.9 87.7 25 9.1 48.5
14:10 1014 29.94 843 24.89 32.2 89.9 24 9.5 49.2
14:15 1014 29.94 843 24.89 32.6 90.8 24 9.6 49.3
14:20 1014 29.94 843 24.89 33.1 91.6 23 9.5 49
14:25 1014 29.94 843 24.89 33.4 92.1 23 10 50.1
14:30 1014 29.94 843 24.89 33.3 92 22 9.5 49
14:35 1014 29.94 843 24.89 33.5 92.4 22 9.1 48.4
14:40 1014 29.94 843 24.89 32.9 91.2 23 9.6 49.2
14:45 1014 29.94 843 24.89 32.1 89.7 21 7.4 45.3
14:50 1013 29.91 843 24.89 32.3 90.1 23 8.7 47.7
14:55 1013 29.91 843 24.89 32.5 90.4 22 8.2 46.7
15:00 1013 29.91 843 24.89 33.2 91.8 19 7.2 44.9
15:05 1013 29.91 843 24.89 33.3 91.9 18 6 42.7
15:10 1013 29.91 843 24.89 34 93.2 15 4 39.2
15:15 1013 29.91 843 24.89 35.1 95.1 15 4.7 40.5
15:20 1013 29.91 843 24.89 35.4 95.7 14 4.3 39.8
15:25 1013 29.91 843 24.89 35.4 95.8 12 2.3 36.2
15:30 1013 29.91 843 24.89 35.4 95.7 12 2.6 36.6
15:35 1013 29.91 842 24.86 36.1 96.9 13 3.7 38.6
15:40 1013 29.91 842 24.86 36.3 97.4 11 2.3 36.1
15:45 1013 29.91 842 24.86 36.7 98.1 12 2.7 36.9
15:50 1013 29.91 842 24.86 36.9 98.4 12 2.9 37.3
15:55 1013 29.91 842 24.86 36.3 97.3 11 1.8 35.3
16:00 1013 29.91 842 24.86 36.5 97.8 11 2.3 36.1
16:05 1013 29.91 842 24.86 37 98.7 12 3.1 37.5
16:10 1013 29.91 842 24.86 37.7 99.8 10 2 35.7
16:15 1013 29.91 842 24.86 36.7 98.1 10 0.4 32.7
16:20 1013 29.91 842 24.86 35.1 95.1 9 -1.5 29.2
16:25 1013 29.91 842 24.86 35 95 9 -2 28.4
16:30 1013 29.91 842 24.86 34.9 94.7 8 -3 26.5
16:35 1013 29.91 842 24.86 34.9 94.7 10 -1.5 29.4
16:40 1013 29.91 842 24.86 34.6 94.3 10 -1.3 29.6
16:45 1013 29.91 842 24.86 34.4 93.9 9 -2 28.4
16:50 1013 29.91 842 24.86 34.5 94 10 -1 30.3
16:55 1013 29.91 842 24.86 34.4 93.9 9 -3.3 26.1
17:00 1013 29.91 842 24.86 34.4 94 9 -2.7 27.2
17:05 1013 29.91 842 24.86 34.5 94 9 -3.3 26.1
17:10 1013 29.91 842 24.86 34.5 94 9 -2.1 28.3
17:15 1013 29.91 842 24.86 34.2 93.6 9 -2.9 26.8
17:20 1013 29.91 842 24.86 34.2 93.6 9 -2.3 27.8
17:25 1013 29.91 842 24.86 34.5 94 9 -2.3 27.9
17:30 1013 29.91 842 24.86 34.3 93.8 10 -1.6 29
17:35 1013 29.91 842 24.86 34.1 93.3 9 -2.8 26.9
17:40 1013 29.91 842 24.86 34.1 93.4 9 -2.4 27.8
17:45 1013 29.91 842 24.86 34.2 93.5 10 -2 28.4
17:50 1013 29.91 842 24.86 34.2 93.6 10 -1.8 28.8
17:55 1013 29.91 842 24.86 34.3 93.7 9 -3.4 25.8
18:00 1012 29.88 842 24.86 34.1 93.4 10 -1.4 29.4
18:05 1013 29.91 842 24.86 34 93.2 10 -1.1 30
18:10 1013 29.91 842 24.86 34 93.1 9 -2.5 27.4
18:15 1013 29.91 842 24.86 34 93.2 10 -2 28.4
18:20 1013 29.91 842 24.86 33.7 92.7 11 -0.8 30.6
18:25 1013 29.91 842 24.86 33.7 92.6 10 -2.1 28.1
18:30 1013 29.91 842 24.86 33.6 92.5 9 -3 26.6
18:35 1013 29.91 842 24.86 33.9 93.1 9 -2.9 26.8
18:40 1013 29.91 842 24.86 33.9 93 9 -3.3 26.1
18:45 1013 29.91 842 24.86 33.7 92.7 10 -1.8 28.7
18:50 1013 29.91 842 24.86 33.4 92 10 -2.5 27.4
18:55 1013 29.91 842 24.86 33.1 91.5 10 -2 28.4
19:00 1013 29.91 842 24.86 32.9 91.2 11 -1.6 29.1
19:05 1013 29.91 842 24.86 32.7 90.8 11 -1.6 29.1
19:10 1013 29.91 842 24.86 32.5 90.6 11 -0.7 30.7
19:15 1013 29.91 842 24.86 32.3 90.2 11 -1.1 30.1
19:20 1013 29.91 842 24.86 32.2 89.9 12 -0.3 31.4
19:25 1013 29.91 842 24.86 32.1 89.7 12 -1 30.1
19:30 1013 29.91 842 24.86 32.4 90.3 12 -0.6 30.9
19:35 1013 29.91 842 24.86 32.4 90.4 11 -1.4 29.5
19:40 1013 29.91 842 24.86 32.3 90.1 12 -0.6 31
19:45 1013 29.91 842 24.86 31.7 89 12 -0.7 30.7
19:50 1013 29.91 842 24.86 31.5 88.7 11 -1.6 29.2
19:55 1013 29.91 842 24.86 31.3 88.4 12 -1 30.2
20:00 1013 29.91 842 24.86 31 87.7 13 0.1 32.1
20:05 1013 29.91 842 24.86 30.4 86.8 14 0.5 33
20:10 1013 29.91 842 24.86 30 86.1 14 -0.2 31.6
20:15 1013 29.91 842 24.86 29.9 85.8 15 0.6 33.1
20:20 1013 29.91 842 24.86 29.6 85.3 14 -0.8 30.5
20:25 1013 29.91 842 24.86 29.8 85.6 14 -0 31.9
20:30 1013 29.91 842 24.86 29.6 85.2 12 -2.1 28.2
20:35 1013 29.91 842 24.86 29.5 85.1 13 -1 30.2
20:40 1013 29.91 842 24.86 29.4 84.8 12 -2.1 28.1
20:45 1013 29.91 842 24.86 29.9 85.9 12 -1.7 28.9
20:50 1013 29.91 842 24.86 29.7 85.5 13 -1.4 29.5
20:55 1013 29.91 842 24.86 29.2 84.6 14 -0.3 31.5
21:00 1013 29.91 842 24.86 28.2 82.7 20 3.7 38.6
21:05 1013 29.91 842 24.86 27.7 81.8 18 1.7 35.1
21:10 1013 29.91 842 24.86 27.5 81.4 18 1.5 34.7
21:15 1013 29.91 842 24.86 27 80.5 23 4.1 39.5
21:20 1013 29.91 842 24.86 26.6 80 21 2.6 36.7
21:25 1013 29.91 842 24.86 26.6 79.8 16 -0.8 30.6
21:30 1013 29.91 842 24.86 27.1 80.8 16 -0.7 30.7
21:35 1013 29.91 842 24.86 27.8 82 16 -0 31.9
21:40 1013 29.91 842 24.86 28.1 82.5 14 -2.1 28.3
21:45 1013 29.91 842 24.86 28 82.4 14 -1.8 28.8
21:50 1013 29.91 843 24.89 27.8 82 15 -1.2 29.8
21:55 1013 29.91 843 24.89 27.7 81.8 15 -1.1 30.1
22:00 1013 29.91 843 24.89 27.7 81.8 14 -2.2 28
22:05 1013 29.91 843 24.89 28.3 83 13 -2.3 27.8
22:10 1013 29.91 843 24.89 28.4 83.2 13 -2.7 27.2
22:15 1013 29.91 843 24.89 28.6 83.5 12 -3 26.7
22:20 1014 29.94 843 24.89 28.6 83.5 13 -2.6 27.3
22:25 1014 29.94 843 24.89 28.4 83.1 13 -1.9 28.6
22:30 1014 29.94 843 24.89 28.3 83 13 -2.4 27.8
22:35 1014 29.94 843 24.89 28.3 83 13 -2.2 28
22:40 1014 29.94 843 24.89 28.4 83.1 13 -2.2 28
22:45 1014 29.94 843 24.89 28.6 83.5 13 -2 28.4
22:50 1014 29.94 843 24.89 28.5 83.3 14 -1.7 28.9
22:55 1014 29.94 843 24.89 28.2 82.8 14 -1.7 28.9
23:00 1014 29.94 843 24.89 28.2 82.7 13 -2.6 27.4
23:05 1014 29.94 843 24.89 28.3 83 13 -2.1 28.2
23:10 1014 29.94 843 24.89 28.2 82.7 18 1.6 34.9
23:15 1014 29.94 843 24.89 27.6 81.6 14 -1.7 29
23:20 1014 29.94 843 24.89 27.3 81.2 14 -1.8 28.7
23:25 1014 29.94 843 24.89 26.7 80.1 15 -1.6 29.2
23:30 1014 29.94 843 24.89 26.6 79.9 15 -2.1 28.3
23:35 1014 29.94 843 24.89 26.7 80.1 15 -1.6 29.1
23:40 1014 29.94 843 24.89 27.3 81.2 14 -2.1 28.3
23:45 1014 29.94 843 24.89 27.2 81 15 -1.2 29.8
23:50 1014 29.94 843 24.89 26.4 79.6 19 1 33.7
23:55 1014 29.94 843 24.89 25.9 78.6 16 -1.4 29.4
24:00 1014 29.94 843 24.89 25.6 78.1 24 3.8 38.9